createdAt,value
2023-02-14T00:14:45.145Z,90.97
2023-02-14T00:17:11.738Z,91.19
2023-02-14T00:19:38.340Z,91.11
2023-02-14T00:22:05.392Z,91.33
2023-02-14T00:24:32.408Z,91.55
2023-02-14T00:26:59.203Z,91.58
2023-02-14T00:29:29.627Z,91.63
2023-02-14T00:31:56.488Z,91.48
2023-02-14T00:34:23.272Z,91.84
2023-02-14T00:36:50.672Z,91.67
2023-02-14T00:39:18.034Z,91.60
2023-02-14T00:41:44.889Z,92.11
2023-02-14T00:44:13.017Z,91.53
2023-02-14T00:46:40.045Z,92.59
2023-02-14T00:49:06.879Z,93.33
2023-02-14T00:51:33.470Z,93.85
2023-02-14T00:54:00.003Z,94.28
2023-02-14T00:56:26.633Z,93.66
2023-02-14T00:58:53.213Z,93.80
2023-02-14T01:01:20.092Z,93.36
2023-02-14T01:03:47.556Z,92.50
2023-02-14T01:06:14.453Z,92.25
2023-02-14T01:08:41.022Z,91.89
2023-02-14T01:11:08.628Z,92.25
2023-02-14T01:13:35.245Z,92.26
2023-02-14T01:16:06.939Z,92.69
2023-02-14T01:21:14.524Z,92.92
2023-02-14T01:23:42.162Z,92.98
2023-02-14T01:26:09.971Z,91.85
2023-02-14T01:28:37.039Z,92.24
2023-02-14T01:31:24.801Z,92.13
2023-02-14T01:33:52.845Z,91.45
2023-02-14T01:36:24.945Z,92.22
2023-02-14T01:38:54.458Z,92.64
2023-02-14T01:41:21.976Z,92.51
2023-02-14T01:43:50.150Z,92.89
2023-02-14T01:46:16.794Z,93.31
2023-02-14T01:48:43.483Z,94.12
2023-02-14T01:51:10.238Z,93.93
2023-02-14T01:53:37.184Z,93.30
2023-02-14T01:56:10.078Z,93.65
2023-02-14T01:58:39.698Z,93.55
2023-02-14T02:01:06.909Z,93.61
2023-02-14T02:03:42.558Z,94.68
2023-02-14T02:06:13.750Z,94.37
2023-02-14T02:08:49.251Z,93.77
2023-02-14T02:11:15.845Z,93.11
2023-02-14T02:13:42.358Z,93.17
2023-02-14T02:16:40.085Z,93.52
2023-02-14T02:19:21.574Z,93.86
2023-02-14T02:22:09.407Z,93.86
2023-02-14T02:24:46.610Z,93.74
2023-02-14T02:27:48.430Z,92.88
2023-02-14T02:30:37.636Z,92.32
2023-02-14T02:33:38.849Z,92.13
2023-02-14T02:36:13.933Z,93.00
2023-02-14T02:38:59.214Z,92.96
2023-02-14T02:41:44.016Z,92.49
2023-02-14T02:44:31.871Z,92.04
2023-02-14T02:47:22.508Z,92.17
2023-02-14T02:50:17.358Z,91.72
2023-02-14T02:53:06.533Z,91.47
2023-02-14T02:55:59.444Z,92.08
2023-02-14T02:58:33.179Z,92.27
2023-02-14T03:01:03.596Z,92.21
2023-02-14T03:03:51.882Z,92.64
2023-02-14T03:06:18.498Z,92.18
2023-02-14T03:08:45.062Z,91.84
2023-02-14T03:11:13.527Z,92.37
2023-02-14T03:13:43.794Z,92.03
2023-02-14T03:20:05.269Z,93.05
2023-02-14T03:22:38.618Z,93.15
2023-02-14T03:25:11.298Z,92.64
2023-02-14T03:27:44.970Z,92.68
2023-02-14T03:30:28.434Z,92.80
2023-02-14T03:33:03.082Z,92.57
2023-02-14T03:35:40.484Z,91.74
2023-02-14T03:38:16.259Z,91.02
2023-02-14T03:40:49.593Z,91.39
2023-02-14T03:43:32.501Z,90.71
2023-02-14T03:46:12.365Z,90.46
2023-02-14T03:48:40.901Z,91.39
2023-02-14T03:51:10.890Z,91.38
2023-02-14T03:53:43.804Z,90.88
2023-02-14T03:56:58.102Z,91.17
2023-02-14T03:59:28.638Z,90.55
2023-02-14T04:02:17.216Z,90.76
2023-02-14T04:04:46.690Z,90.69
2023-02-14T04:07:15.869Z,91.07
2023-02-14T04:09:42.961Z,91.64
2023-02-14T04:12:09.833Z,91.89
2023-02-14T04:14:36.653Z,92.23
2023-02-14T04:17:21.995Z,92.48
2023-02-14T04:19:48.557Z,91.93
2023-02-14T04:22:15.512Z,91.89
2023-02-14T04:24:42.033Z,91.38
2023-02-14T04:27:11.631Z,91.53
2023-02-14T04:29:48.050Z,91.26
2023-02-14T04:32:20.818Z,91.24
2023-02-14T04:34:48.262Z,91.23
2023-02-14T04:37:17.138Z,90.35
2023-02-14T04:39:43.832Z,89.98
2023-02-14T04:42:10.336Z,89.94
2023-02-14T04:44:38.430Z,90.36
2023-02-14T04:47:05.584Z,90.88
2023-02-14T04:49:32.145Z,90.73
2023-02-14T04:51:59.064Z,90.64
2023-02-14T04:54:25.881Z,90.65
2023-02-14T04:56:52.460Z,91.24
2023-02-14T04:59:19.037Z,90.90
2023-02-14T05:01:45.711Z,91.23
2023-02-14T05:04:12.380Z,90.67
2023-02-14T05:06:38.901Z,90.14
2023-02-14T05:09:05.436Z,90.04
2023-02-14T05:11:32.034Z,90.39
2023-02-14T05:13:58.544Z,90.95
2023-02-14T05:16:25.482Z,90.78
2023-02-14T05:18:52.130Z,91.13
2023-02-14T05:21:18.770Z,91.54
2023-02-14T05:23:45.412Z,91.18
2023-02-14T05:26:11.985Z,91.14
2023-02-14T05:28:41.214Z,90.55
2023-02-14T05:31:08.640Z,90.70
2023-02-14T05:33:35.557Z,90.66
2023-02-14T05:36:02.870Z,91.20
2023-02-14T05:41:08.921Z,91.00
2023-02-14T05:43:35.480Z,90.57
2023-02-14T05:46:02.178Z,90.49
2023-02-14T05:48:28.810Z,90.13
2023-02-14T05:50:55.415Z,90.22
2023-02-14T05:53:21.977Z,90.49
2023-02-14T05:55:48.505Z,90.65
2023-02-14T05:58:15.296Z,89.98
2023-02-14T06:00:41.859Z,89.57
2023-02-14T06:03:08.883Z,89.92
2023-02-14T06:08:13.389Z,89.66
2023-02-14T06:10:39.894Z,89.89
2023-02-14T06:13:09.107Z,89.74
2023-02-14T06:15:36.858Z,90.12
2023-02-14T06:18:04.968Z,89.65
2023-02-14T06:20:31.589Z,90.87
2023-02-14T06:22:58.213Z,90.32
2023-02-14T06:25:25.087Z,90.09
2023-02-14T06:27:51.838Z,89.86
2023-02-14T06:30:18.767Z,89.92
2023-02-14T06:32:45.444Z,89.85
2023-02-14T06:35:11.971Z,90.01
2023-02-14T06:37:38.929Z,89.56
2023-02-14T06:40:06.176Z,89.82
2023-02-14T06:42:32.788Z,89.92
2023-02-14T06:44:59.309Z,89.89
2023-02-14T06:47:25.870Z,90.32
2023-02-14T06:49:52.492Z,90.80
2023-02-14T06:54:56.938Z,90.75
2023-02-14T06:57:23.466Z,90.42
2023-02-14T06:59:49.999Z,90.34
2023-02-14T07:02:16.573Z,90.21
2023-02-14T07:04:43.131Z,89.80
2023-02-14T07:07:09.702Z,89.64
2023-02-14T07:09:36.414Z,91.01
2023-02-14T07:12:03.019Z,90.72
2023-02-14T07:14:29.644Z,90.60
2023-02-14T07:16:56.300Z,89.87
2023-02-14T07:19:22.881Z,90.29
2023-02-14T07:24:20.704Z,89.60
2023-02-14T07:26:47.252Z,89.06
2023-02-14T07:29:13.759Z,89.24
2023-02-14T07:31:40.430Z,88.95
2023-02-14T07:34:07.100Z,88.92
2023-02-14T07:36:34.254Z,89.11
2023-02-14T07:39:00.770Z,89.59
2023-02-14T07:41:27.417Z,89.40
2023-02-14T07:43:53.924Z,89.51
2023-02-14T07:46:20.577Z,88.44
2023-02-14T07:48:48.348Z,88.65
2023-02-14T07:51:14.919Z,89.26
2023-02-14T07:53:41.509Z,89.25
2023-02-14T07:58:40.733Z,87.89
2023-02-14T08:01:07.330Z,88.13
2023-02-14T08:03:33.872Z,88.09
2023-02-14T08:06:00.406Z,87.50
2023-02-14T08:08:28.703Z,86.83
2023-02-14T08:10:55.368Z,86.24
2023-02-14T08:13:22.055Z,86.50
2023-02-14T08:16:07.477Z,86.79
2023-02-14T08:18:39.897Z,86.71
2023-02-14T08:23:41.293Z,85.37
2023-02-14T08:26:07.885Z,86.13
2023-02-14T08:28:35.417Z,85.48
2023-02-14T08:31:04.399Z,84.46
2023-02-14T08:33:31.183Z,84.30
2023-02-14T08:35:57.760Z,84.29
2023-02-14T08:38:24.521Z,83.49
2023-02-14T08:40:51.102Z,83.21
2023-02-14T08:43:17.641Z,82.25
2023-02-14T08:45:44.477Z,81.42
2023-02-14T08:48:12.853Z,80.91
2023-02-14T08:50:40.366Z,79.92
2023-02-14T08:53:09.713Z,79.88
2023-02-14T08:55:37.125Z,78.48
2023-02-14T08:58:04.297Z,77.82
2023-02-14T09:00:31.910Z,76.93
2023-02-14T09:02:58.918Z,76.63
2023-02-14T09:05:26.592Z,75.84
2023-02-14T09:07:56.016Z,76.26
2023-02-14T09:10:23.701Z,75.45
2023-02-14T09:12:50.429Z,75.06
2023-02-14T09:15:17.156Z,75.07
2023-02-14T09:17:43.995Z,73.32
2023-02-14T09:20:13.859Z,73.33
2023-02-14T09:22:40.484Z,72.52
2023-02-14T09:25:07.320Z,72.72
2023-02-14T09:27:33.874Z,70.88
2023-02-14T09:30:00.524Z,70.78
2023-02-14T09:32:27.405Z,70.38
2023-02-14T09:34:54.009Z,68.91
2023-02-14T09:40:15.808Z,67.99
2023-02-14T09:43:03.745Z,67.30
2023-02-14T09:45:33.480Z,66.83
2023-02-14T09:48:05.845Z,65.67
2023-02-14T09:53:40.716Z,64.71
2023-02-14T09:56:10.426Z,65.20
2023-02-14T09:58:40.242Z,67.12
2023-02-14T10:01:22.257Z,67.27
2023-02-14T10:04:25.688Z,65.19
2023-02-14T10:07:09.406Z,63.27
2023-02-14T10:09:52.321Z,62.48
2023-02-14T10:12:34.165Z,63.14
2023-02-14T10:15:08.061Z,62.54
2023-02-14T10:17:44.929Z,64.58
2023-02-14T10:22:57.882Z,64.89
2023-02-14T10:25:29.288Z,66.20
2023-02-14T10:27:58.880Z,66.90
2023-02-14T10:30:26.129Z,68.88
2023-02-14T10:36:09.144Z,68.43
2023-02-14T10:38:57.758Z,68.18
2023-02-14T10:41:38.013Z,66.97
2023-02-14T10:44:30.745Z,67.38
2023-02-14T10:47:13.292Z,67.20
2023-02-14T10:49:59.345Z,67.35
2023-02-14T10:52:29.335Z,67.50
2023-02-14T10:55:00.165Z,66.88
2023-02-14T10:57:34.873Z,67.98
2023-02-14T11:00:03.269Z,68.36
2023-02-14T11:02:40.431Z,67.95
2023-02-14T11:05:08.871Z,67.86
2023-02-14T11:07:35.380Z,67.35
2023-02-14T11:12:39.933Z,64.30
2023-02-14T11:15:15.491Z,64.75
2023-02-14T11:17:42.881Z,62.71
2023-02-14T11:20:18.684Z,61.92
2023-02-14T11:22:45.617Z,60.77
2023-02-14T11:25:21.447Z,58.92
2023-02-14T11:27:51.957Z,58.48
2023-02-14T11:30:30.654Z,58.94
2023-02-14T11:35:34.682Z,57.40
2023-02-14T11:38:04.420Z,57.34
2023-02-14T11:40:37.834Z,57.37
2023-02-14T11:43:16.083Z,57.17
2023-02-14T11:48:37.123Z,56.44
2023-02-14T11:51:10.904Z,55.65
2023-02-14T11:53:46.508Z,54.90
2023-02-14T11:56:14.364Z,55.13
2023-02-14T11:58:55.614Z,55.53
2023-02-14T12:01:32.198Z,55.99
2023-02-14T12:04:05.223Z,55.67
2023-02-14T12:06:35.307Z,54.61
2023-02-14T12:09:11.976Z,54.89
2023-02-14T12:11:39.258Z,55.52
2023-02-14T12:14:05.940Z,54.41
2023-02-14T12:16:48.931Z,55.18
2023-02-14T12:19:26.941Z,55.27
2023-02-14T12:21:59.813Z,55.04
2023-02-14T12:24:38.458Z,55.76
2023-02-14T12:29:59.961Z,54.29
2023-02-14T12:32:29.484Z,53.96
2023-02-14T12:35:16.320Z,54.01
2023-02-14T12:38:23.938Z,54.23
2023-02-14T12:41:10.979Z,53.28
2023-02-14T12:43:53.488Z,53.26
2023-02-14T12:46:58.979Z,53.12
2023-02-14T12:49:54.808Z,54.11
2023-02-14T12:52:32.063Z,54.42
2023-02-14T12:55:27.324Z,53.39
2023-02-14T12:58:15.435Z,54.27
2023-02-14T13:00:53.436Z,54.00
2023-02-14T13:03:25.940Z,52.77
2023-02-14T13:06:15.032Z,52.29
2023-02-14T13:09:02.092Z,52.06
2023-02-14T13:12:05.773Z,52.25
2023-02-14T13:14:58.212Z,51.73
2023-02-14T13:17:49.199Z,51.45
2023-02-14T13:20:37.004Z,51.51
2023-02-14T13:23:12.613Z,51.00
2023-02-14T13:25:50.042Z,51.15
2023-02-14T13:28:18.643Z,51.59
2023-02-14T13:30:45.586Z,50.79
2023-02-14T13:33:25.014Z,51.50
2023-02-14T13:35:55.513Z,52.17
2023-02-14T13:38:24.010Z,52.43
2023-02-14T13:40:52.269Z,53.10
2023-02-14T13:43:45.179Z,54.05
2023-02-14T13:48:56.496Z,55.03
2023-02-14T13:51:47.354Z,55.41
2023-02-14T13:54:37.713Z,55.55
2023-02-14T13:57:31.678Z,56.29
2023-02-14T14:00:16.454Z,57.40
2023-02-14T14:02:54.071Z,57.30
2023-02-14T14:05:29.711Z,57.68
2023-02-14T14:08:20.832Z,58.05
2023-02-14T14:10:56.253Z,57.51
2023-02-14T14:13:40.926Z,57.50
2023-02-14T14:16:28.679Z,56.15
2023-02-14T14:19:04.786Z,56.18
2023-02-14T14:21:34.463Z,56.93
2023-02-14T14:24:24.049Z,57.65
2023-02-14T14:27:15.352Z,58.32
2023-02-14T14:29:48.376Z,59.70
2023-02-14T14:35:01.200Z,60.38
2023-02-14T14:37:31.050Z,60.68
2023-02-14T14:40:00.250Z,60.84
2023-02-14T14:42:30.950Z,61.34
2023-02-14T14:45:01.828Z,62.25
2023-02-14T14:47:34.881Z,61.68
2023-02-14T14:50:07.610Z,61.98
2023-02-14T14:52:38.404Z,62.82
2023-02-14T14:55:07.715Z,63.06
2023-02-14T14:57:36.726Z,63.48
2023-02-14T15:00:24.227Z,63.64
2023-02-14T15:03:14.870Z,63.89
2023-02-14T15:05:50.312Z,64.63
2023-02-14T15:08:31.513Z,65.08
2023-02-14T15:11:34.646Z,65.40
2023-02-14T15:14:03.346Z,65.97
2023-02-14T15:19:16.265Z,66.67
2023-02-14T15:21:44.693Z,66.30
2023-02-14T15:24:14.769Z,66.98
2023-02-14T15:26:45.007Z,67.48
2023-02-14T15:29:26.983Z,67.86
2023-02-14T15:31:54.703Z,67.84
2023-02-14T15:34:25.710Z,68.14
2023-02-14T15:36:57.681Z,67.95
2023-02-14T15:39:30.222Z,68.66
2023-02-14T15:41:56.786Z,68.92
2023-02-14T15:47:02.163Z,69.67
2023-02-14T15:49:37.923Z,70.29
2023-02-14T15:52:05.777Z,70.73
2023-02-14T15:54:41.473Z,71.39
2023-02-14T15:57:20.922Z,72.04
2023-02-14T15:59:48.704Z,72.20
2023-02-14T16:02:37.794Z,72.30
2023-02-14T16:05:22.242Z,73.11
2023-02-14T16:08:22.973Z,73.77
2023-02-14T16:11:15.915Z,74.11
2023-02-14T16:13:45.004Z,74.32
2023-02-14T16:18:50.497Z,75.15
2023-02-14T16:21:33.398Z,75.60
2023-02-14T16:24:11.986Z,76.10
2023-02-14T16:26:41.190Z,76.57
2023-02-14T16:29:10.746Z,76.96
2023-02-14T16:32:06.191Z,80.40
2023-02-14T16:34:32.867Z,70.28
2023-02-14T16:37:07.865Z,66.49
2023-02-14T16:39:35.415Z,68.32
2023-02-14T16:42:03.630Z,72.21
2023-02-14T16:44:31.076Z,74.69
2023-02-14T16:46:57.698Z,75.78
2023-02-14T16:49:24.721Z,77.18
2023-02-14T16:51:52.363Z,77.99
2023-02-14T16:54:21.505Z,78.72
2023-02-14T16:57:00.189Z,78.70
2023-02-14T16:59:26.870Z,79.80
2023-02-14T17:01:53.997Z,80.11
2023-02-14T17:04:21.229Z,81.75
2023-02-14T17:06:53.803Z,82.39
2023-02-14T17:09:25.656Z,82.33
2023-02-14T17:11:54.432Z,82.24
2023-02-14T17:14:25.692Z,82.42
2023-02-14T17:16:52.786Z,83.12
2023-02-14T17:19:19.505Z,83.28
2023-02-14T17:21:46.322Z,83.70
2023-02-14T17:24:12.834Z,84.02
2023-02-14T17:26:39.355Z,85.63
2023-02-14T17:29:06.969Z,83.36
2023-02-14T17:31:35.956Z,84.52
2023-02-14T17:36:41.498Z,84.50
2023-02-14T17:39:08.118Z,85.01
2023-02-14T17:41:34.701Z,85.29
2023-02-14T17:44:01.431Z,85.06
2023-02-14T17:46:29.345Z,85.11
2023-02-14T17:48:57.172Z,85.61
2023-02-14T17:51:24.809Z,86.20
2023-02-14T17:53:51.464Z,86.63
2023-02-14T17:56:23.738Z,86.62
2023-02-14T17:58:52.641Z,87.52
2023-02-14T18:01:21.837Z,87.82
2023-02-14T18:03:48.887Z,88.07
2023-02-14T18:08:51.887Z,88.44
2023-02-14T18:11:20.114Z,88.92
2023-02-14T18:16:19.375Z,89.02
2023-02-14T18:21:21.358Z,89.79
2023-02-14T18:23:48.170Z,89.96
2023-02-14T18:26:16.574Z,89.99
2023-02-14T18:28:43.096Z,89.72
2023-02-14T18:33:52.387Z,90.05
2023-02-14T18:36:24.306Z,91.11
2023-02-14T18:38:51.059Z,91.20
2023-02-14T18:41:19.466Z,90.51
2023-02-14T18:43:46.202Z,89.72
2023-02-14T18:46:18.187Z,89.41
2023-02-14T18:48:45.383Z,89.72
2023-02-14T18:51:23.818Z,90.78
2023-02-14T18:53:55.025Z,90.53
2023-02-14T18:56:25.661Z,91.61
2023-02-14T18:59:02.772Z,90.24
2023-02-14T19:01:32.251Z,90.92
2023-02-14T19:04:00.468Z,90.96
2023-02-14T19:06:29.986Z,90.77
2023-02-14T19:08:57.595Z,90.93
2023-02-14T19:11:27.408Z,90.66
2023-02-14T19:13:56.700Z,91.73
2023-02-14T19:16:26.236Z,92.20
2023-02-14T19:18:53.917Z,92.67
2023-02-14T19:21:23.185Z,92.29
2023-02-14T19:23:52.143Z,92.35
2023-02-14T19:26:21.265Z,91.95
2023-02-14T19:28:49.613Z,92.84
2023-02-14T19:31:16.716Z,92.79
2023-02-14T19:33:45.905Z,92.55
2023-02-14T19:36:14.825Z,92.31
2023-02-14T19:38:43.413Z,92.36
2023-02-14T19:41:24.802Z,92.07
2023-02-14T19:43:51.819Z,91.77
2023-02-14T19:46:20.601Z,93.57
2023-02-14T19:48:48.720Z,93.02
2023-02-14T19:51:21.734Z,93.98
2023-02-14T19:53:49.887Z,94.24
2023-02-14T19:56:21.550Z,95.37
2023-02-14T19:58:49.436Z,95.55
2023-02-14T20:01:25.943Z,94.74
2023-02-14T20:03:53.329Z,94.69
2023-02-14T20:06:23.767Z,94.12
2023-02-14T20:08:50.934Z,93.34
2023-02-14T20:11:29.172Z,93.01
2023-02-14T20:13:56.262Z,92.69
2023-02-14T20:16:25.686Z,92.58
2023-02-14T20:18:53.086Z,92.75
2023-02-14T20:21:28.118Z,92.33
2023-02-14T20:29:04.689Z,91.86
2023-02-14T20:31:33.263Z,92.31
2023-02-14T20:34:00.695Z,93.42
2023-02-14T20:36:27.349Z,92.53
2023-02-14T20:38:58.977Z,93.02
2023-02-14T20:41:26.425Z,93.12
2023-02-14T20:43:53.253Z,92.92
2023-02-14T20:46:20.142Z,92.21
2023-02-14T20:48:46.741Z,91.76
2023-02-14T20:51:19.225Z,92.00
2023-02-14T20:53:46.403Z,92.28
2023-02-14T20:56:14.680Z,92.34
2023-02-14T20:58:41.558Z,93.68
2023-02-14T21:01:11.052Z,93.14
2023-02-14T21:03:38.173Z,93.84
2023-02-14T21:06:06.761Z,94.62
2023-02-14T21:08:33.832Z,95.43
2023-02-14T21:11:00.861Z,94.82
2023-02-14T21:13:27.524Z,94.14
2023-02-14T21:15:54.151Z,93.71
2023-02-14T21:18:20.820Z,92.54
2023-02-14T21:20:47.377Z,92.67
2023-02-14T21:23:13.953Z,93.16
2023-02-14T21:25:40.516Z,93.30
2023-02-14T21:28:07.001Z,93.21
2023-02-14T21:30:33.579Z,92.99
2023-02-14T21:35:31.709Z,91.21
2023-02-14T21:37:58.217Z,90.77
2023-02-14T21:40:24.761Z,91.82
2023-02-14T21:42:51.322Z,92.36
2023-02-14T21:45:36.406Z,93.41
2023-02-14T21:48:21.705Z,93.20
2023-02-14T21:50:48.237Z,93.56
2023-02-14T21:53:14.764Z,93.17
2023-02-14T21:55:42.834Z,92.86
2023-02-14T21:58:09.403Z,93.43
2023-02-14T22:05:47.244Z,93.10
2023-02-14T22:08:13.787Z,92.77
2023-02-14T22:10:40.603Z,93.43
2023-02-14T22:13:07.270Z,92.30
2023-02-14T22:18:07.338Z,91.23
2023-02-14T22:20:33.846Z,92.21
2023-02-14T22:25:38.354Z,92.86
2023-02-14T22:30:36.196Z,92.25
2023-02-14T22:33:02.713Z,92.82
2023-02-14T22:35:29.370Z,92.88
2023-02-14T22:37:56.115Z,94.30
2023-02-14T22:40:22.702Z,93.78
2023-02-14T22:42:49.214Z,94.37
2023-02-14T22:47:53.480Z,95.41
2023-02-14T22:50:20.078Z,95.09
2023-02-14T22:52:46.689Z,95.37
2023-02-14T22:55:13.220Z,95.18
2023-02-14T22:57:39.774Z,95.46
2023-02-14T23:00:11.770Z,94.74
2023-02-14T23:02:39.046Z,93.48
2023-02-14T23:05:05.907Z,93.51
2023-02-14T23:07:32.536Z,92.54
2023-02-14T23:09:59.151Z,91.87
2023-02-14T23:12:44.214Z,91.22
2023-02-14T23:15:29.210Z,91.64
2023-02-14T23:18:14.856Z,91.06
2023-02-14T23:20:59.935Z,91.56
2023-02-14T23:23:31.465Z,91.39
2023-02-14T23:25:58.344Z,90.84
2023-02-14T23:28:25.848Z,90.17
2023-02-14T23:30:52.554Z,90.57
2023-02-14T23:33:19.199Z,91.40
2023-02-14T23:35:45.988Z,91.91
2023-02-14T23:38:12.518Z,92.69
2023-02-14T23:40:57.816Z,93.66
2023-02-14T23:43:27.461Z,92.56
2023-02-14T23:45:54.513Z,91.41
2023-02-14T23:48:21.103Z,92.04
2023-02-14T23:50:47.691Z,92.75
2023-02-14T23:53:15.421Z,93.01
2023-02-14T23:58:13.189Z,93.61
